Time;durP1;ratioP1;P1;durP2;ratioP2;P2;SDS_P1;SDS_P2;PMS_P1;PMS_P2;Temp;Humidity;BMP_temperature;BMP_pressure;BME280_temperature;BME280_humidity;BME280_pressure;Samples;Min_cycle;Max_cycle;Signal;HPM_P1;HPM_P2
2022/11/22 00:02:10;;;;;;;1999.90;999.90;;;;;;;-2.56;100.00;99221.25;5001993;28;20058;-74
2022/11/22 00:04:36;;;;;;;1999.90;999.90;;;;;;;-2.58;100.00;99213.44;5001992;28;20030;-74
2022/11/22 00:07:01;;;;;;;1999.90;999.90;;;;;;;-2.58;100.00;99217.72;5008441;28;20104;-74
2022/11/22 00:09:26;;;;;;;1999.90;999.90;;;;;;;-2.61;100.00;99215.94;5005681;28;20027;-74
2022/11/22 00:11:51;;;;;;;1999.90;999.90;;;;;;;-2.61;100.00;99213.38;5004026;28;20100;-74
2022/11/22 00:14:17;;;;;;;1999.90;999.90;;;;;;;-2.66;100.00;99202.91;5000972;28;20042;-74
2022/11/22 00:16:42;;;;;;;1999.90;999.90;;;;;;;-2.67;100.00;99214.09;5002871;28;20038;-74
2022/11/22 00:19:08;;;;;;;1999.90;999.90;;;;;;;-2.65;100.00;99217.59;5002005;28;20042;-74
2022/11/22 00:21:33;;;;;;;1999.90;999.90;;;;;;;-2.65;100.00;99201.19;5001907;28;20050;-74
2022/11/22 00:23:59;;;;;;;1999.90;999.90;;;;;;;-2.66;100.00;99202.03;5003253;28;20048;-74
2022/11/22 00:26:24;;;;;;;1999.90;999.90;;;;;;;-2.68;100.00;99203.69;5003951;28;20120;-74
2022/11/22 00:28:50;;;;;;;1999.90;999.90;;;;;;;-2.71;100.00;99196.75;5000485;28;20121;-74
2022/11/22 00:31:15;;;;;;;1999.90;999.90;;;;;;;-2.66;100.00;99181.38;5003067;28;20030;-74
2022/11/22 00:33:40;;;;;;;1999.90;999.90;;;;;;;-2.67;100.00;99177.06;5001553;28;20031;-74
2022/11/22 00:36:06;;;;;;;1999.90;999.90;;;;;;;-2.65;100.00;99176.25;4988458;28;20439;-74
2022/11/22 00:38:31;;;;;;;1999.90;999.90;;;;;;;-2.61;100.00;99179.78;4986632;28;20034;-74
2022/11/22 00:40:56;;;;;;;1999.90;999.90;;;;;;;-2.60;100.00;99175.50;5000755;28;20503;-74
2022/11/22 00:43:22;;;;;;;1999.90;999.90;;;;;;;-2.56;100.00;99173.03;5003573;28;20540;-74
2022/11/22 00:45:47;;;;;;;1999.90;999.90;;;;;;;-2.53;100.00;99162.75;5003087;28;20452;-74
2022/11/22 00:48:12;;;;;;;1999.90;999.90;;;;;;;-2.48;100.00;99168.06;5001052;28;20032;-74
2022/11/22 00:50:38;;;;;;;1999.90;999.90;;;;;;;-2.48;100.00;99165.47;5002104;28;20455;-74
2022/11/22 00:53:03;;;;;;;1999.90;999.90;;;;;;;-2.48;100.00;99168.06;5001957;28;20065;-74
2022/11/22 00:55:28;;;;;;;1999.90;999.90;;;;;;;-2.47;100.00;99167.19;5003568;28;20062;-74
2022/11/22 01:00:24;;;;;;;1999.90;999.90;;;;;;;-2.49;100.00;99166.28;4942636;29;20035;-75
2022/11/22 01:02:50;;;;;;;1999.90;999.90;;;;;;;-2.50;100.00;99161.97;4943490;29;20054;-75
2022/11/22 01:05:16;;;;;;;1999.90;999.90;;;;;;;-2.54;100.00;99166.19;4946295;28;20467;-75
2022/11/22 01:07:42;;;;;;;1999.90;999.90;;;;;;;-2.50;100.00;99172.28;4951584;28;20036;-75
2022/11/22 01:10:08;;;;;;;1999.90;999.90;;;;;;;-2.53;100.00;99164.47;4945093;29;20714;-75
2022/11/22 01:12:34;;;;;;;1999.90;999.90;;;;;;;-2.53;100.00;99161.91;4941999;28;20091;-75
2022/11/22 01:14:59;;;;;;;1999.90;999.90;;;;;;;-2.53;100.00;99162.75;4944809;28;20043;-75
2022/11/22 01:17:25;;;;;;;1999.90;999.90;;;;;;;-2.51;100.00;99155.94;4947167;28;20474;-75
2022/11/22 01:19:50;;;;;;;1999.90;999.90;;;;;;;-2.46;100.00;99153.47;4943314;28;20043;-75
2022/11/22 01:22:16;;;;;;;1999.90;999.90;;;;;;;-2.45;100.00;99156.06;4942077;28;20397;-75
2022/11/22 01:24:41;;;;;;;1999.90;999.90;;;;;;;-2.42;100.00;99161.28;4945876;28;20064;-75
2022/11/22 01:27:06;;;;;;;1999.90;999.90;;;;;;;-2.43;100.00;99159.56;4946076;28;20043;-75
2022/11/22 01:29:32;;;;;;;1999.90;999.90;;;;;;;-2.44;100.00;99162.09;4945017;28;20090;-75
2022/11/22 01:31:57;;;;;;;1999.90;999.90;;;;;;;-2.47;100.00;99162.91;4942677;29;20044;-75
2022/11/22 01:34:22;;;;;;;1999.90;999.90;;;;;;;-2.49;100.00;99166.28;4943784;29;20047;-75
2022/11/22 01:36:48;;;;;;;1999.90;999.90;;;;;;;-2.52;100.00;99163.63;4952267;28;20067;-75
2022/11/22 01:39:14;;;;;;;1999.90;999.90;;;;;;;-2.59;100.00;99166.88;4944289;29;20451;-75
2022/11/22 01:41:39;;;;;;;1999.90;999.90;;;;;;;-2.62;100.00;99156.50;4948361;28;20755;-75
2022/11/22 01:44:41;;;;;;;1999.90;999.90;;;;;;;-2.63;100.00;99165.94;4945207;28;20121;-75
2022/11/22 01:47:13;;;;;;;1999.90;999.90;;;;;;;-2.69;100.00;99160.66;4928314;29;20055;-74
2022/11/22 01:49:40;;;;;;;1999.90;999.90;;;;;;;-2.73;100.00;99154.50;4944760;29;20406;-75
2022/11/22 01:52:12;;;;;;;1999.90;999.90;;;;;;;-2.75;100.00;99163.06;4941945;29;20090;-75
2022/11/22 01:54:40;;;;;;;1999.90;999.90;;;;;;;-2.80;100.00;99162.97;4943562;28;20039;-75
2022/11/22 01:57:11;;;;;;;1999.90;999.90;;;;;;;-2.85;100.00;99163.69;4946025;28;20082;-75
2022/11/22 01:59:40;;;;;;;1999.90;999.90;;;;;;;-2.86;100.00;99162.78;4944791;29;20039;-75
2022/11/22 02:02:05;;;;;;;1999.90;999.90;;;;;;;-2.90;100.00;99156.69;4942756;29;20126;-75
2022/11/22 02:04:33;;;;;;;1999.90;999.90;;;;;;;-2.97;100.00;99153.91;4943401;28;20075;-75
2022/11/22 02:07:19;;;;;;;1999.90;999.90;;;;;;;-2.96;100.00;99155.63;4946696;28;20070;-75
2022/11/22 02:09:48;;;;;;;1999.90;999.90;;;;;;;-3.00;100.00;99153.84;4942887;28;20457;-75
2022/11/22 02:12:14;;;;;;;1999.90;999.90;;;;;;;-3.03;100.00;99153.75;4944725;29;20046;-75
2022/11/22 02:14:40;;;;;;;1999.90;999.90;;;;;;;-3.04;100.00;99152.00;4941388;29;20039;-75
2022/11/22 02:17:06;;;;;;;1999.90;999.90;;;;;;;-3.06;100.00;99154.56;4949263;28;20050;-75
2022/11/22 02:19:48;;;;;;;1999.90;999.90;;;;;;;-3.10;100.00;99152.72;4943985;28;20090;-75
2022/11/22 02:22:47;;;;;;;1999.90;999.90;;;;;;;-3.09;100.00;99147.59;4945280;29;20035;-75
2022/11/22 02:25:36;;;;;;;1999.90;999.90;;;;;;;-3.11;100.00;99141.53;4946265;28;20402;-75
2022/11/22 02:28:03;;;;;;;1999.90;999.90;;;;;;;-3.14;100.00;99136.28;4946351;28;20087;-75
2022/11/22 02:30:28;;;;;;;1999.90;999.90;;;;;;;-3.17;100.00;99128.47;4945635;28;20047;-75
2022/11/22 02:32:54;;;;;;;1999.90;999.90;;;;;;;-3.19;100.00;99122.38;4947583;29;20047;-75
2022/11/22 02:35:25;;;;;;;1999.90;999.90;;;;;;;-3.16;100.00;99119.00;4949174;28;20070;-75
2022/11/22 02:37:56;;;;;;;1999.90;999.90;;;;;;;-3.19;100.00;99106.91;4949122;28;20097;-75
2022/11/22 02:40:22;;;;;;;1999.90;999.90;;;;;;;-3.17;100.00;99112.97;4946779;29;20094;-75
2022/11/22 02:42:54;;;;;;;1999.90;999.90;;;;;;;-3.15;100.00;99110.44;4944635;28;20035;-75
2022/11/22 02:45:19;;;;;;;1999.90;999.90;;;;;;;-3.15;100.00;99106.13;4945592;28;20032;-75
2022/11/22 02:47:45;;;;;;;1999.90;999.90;;;;;;;-3.16;100.00;99106.97;4952893;28;20098;-74
2022/11/22 02:50:11;;;;;;;1999.90;999.90;;;;;;;-3.15;100.00;99106.13;4947459;29;20383;-75
2022/11/22 02:52:36;;;;;;;1999.90;999.90;;;;;;;-3.16;100.00;99109.56;4946835;29;20043;-75
2022/11/22 02:55:01;;;;;;;1999.90;999.90;;;;;;;-3.14;100.00;99117.34;4944404;28;20036;-75
2022/11/22 02:57:27;;;;;;;1999.90;999.90;;;;;;;-3.15;100.00;99103.56;4949586;28;20494;-75
2022/11/22 02:59:52;;;;;;;1999.90;999.90;;;;;;;-3.16;100.00;99099.22;4946787;28;20035;-75
2022/11/22 03:02:17;;;;;;;1999.90;999.90;;;;;;;-3.13;100.00;99107.06;4952815;28;20089;-75
2022/11/22 03:04:43;;;;;;;1999.90;999.90;;;;;;;-3.10;100.00;99101.09;4949990;28;20036;-75
2022/11/22 03:07:08;;;;;;;1999.90;999.90;;;;;;;-3.11;100.00;99092.47;4949973;28;20075;-75
2022/11/22 03:09:33;;;;;;;1999.90;999.90;;;;;;;-3.04;100.00;99102.94;4947353;29;20035;-75
2022/11/22 03:11:59;;;;;;;1999.90;999.90;;;;;;;-3.03;100.00;99095.25;4944202;28;20246;-75
2022/11/22 03:14:25;;;;;;;1999.90;999.90;;;;;;;-2.97;100.00;99099.69;4944269;29;20446;-75
2022/11/22 03:16:50;;;;;;;1999.90;999.90;;;;;;;-2.93;100.00;99102.41;4950954;28;20036;-75
2022/11/22 03:19:16;;;;;;;1999.90;999.90;;;;;;;-2.91;100.00;99099.84;4945932;28;20062;-75
2022/11/22 03:21:42;;;;;;;1999.90;999.90;;;;;;;-2.88;100.00;99093.06;4947231;29;20027;-75
2022/11/22 03:24:08;;;;;;;1999.90;999.90;;;;;;;-2.85;100.00;99083.66;4947693;28;20062;-75
2022/11/22 03:26:35;;;;;;;1999.90;999.90;;;;;;;-2.81;100.00;99075.13;4948311;28;20059;-75
2022/11/22 03:29:00;;;;;;;1999.90;999.90;;;;;;;-2.76;100.00;99086.44;4946868;28;20503;-75
2022/11/22 03:31:26;;;;;;;1999.90;999.90;;;;;;;-2.74;100.00;99085.63;4944114;29;20056;-75
2022/11/22 03:33:52;;;;;;;1999.90;999.90;;;;;;;-2.72;100.00;99083.97;4945536;28;20027;-75
2022/11/22 03:36:18;;;;;;;1999.90;999.90;;;;;;;-2.69;100.00;99086.63;4950155;28;20059;-75
2022/11/22 03:38:43;;;;;;;1999.90;999.90;;;;;;;-2.66;100.00;99084.09;4943920;29;20046;-75
2022/11/22 03:41:08;;;;;;;1999.90;999.90;;;;;;;-2.61;100.00;99085.94;4946838;29;20126;-75
2022/11/22 03:43:34;;;;;;;1999.90;999.90;;;;;;;-2.56;100.00;99094.66;4943567;29;20043;-75
2022/11/22 03:45:59;;;;;;;1999.90;999.90;;;;;;;-2.52;100.00;99091.28;4946059;28;20090;-75
2022/11/22 03:48:25;;;;;;;1999.90;999.90;;;;;;;-2.50;100.00;99085.31;4944483;29;20091;-75
2022/11/22 03:50:50;;;;;;;1999.90;999.90;;;;;;;-2.42;100.00;99088.09;4944671;29;20039;-75
2022/11/22 03:53:15;;;;;;;1999.90;999.90;;;;;;;-2.36;100.00;99087.34;4945518;29;20042;-75
2022/11/22 03:55:41;;;;;;;1999.90;999.90;;;;;;;-2.31;100.00;99081.44;4948078;28;20090;-75
2022/11/22 03:58:06;;;;;;;1999.90;999.90;;;;;;;-2.27;100.00;99072.94;4946746;28;20038;-75
2022/11/22 04:00:33;;;;;;;1999.90;999.90;;;;;;;-2.25;100.00;99076.41;4943361;29;20047;-75
2022/11/22 04:02:58;;;;;;;1999.90;999.90;;;;;;;-2.21;100.00;99075.63;4945309;28;20074;-75
2022/11/22 04:05:23;;;;;;;1999.90;999.90;;;;;;;-2.16;100.00;99069.69;4944256;29;20127;-75
2022/11/22 04:07:54;;;;;;;1999.90;999.90;;;;;;;-2.09;100.00;99062.13;4946160;28;20043;-75
2022/11/22 04:10:21;;;;;;;1999.90;999.90;;;;;;;-2.03;100.00;99067.41;4946133;29;20035;-75
2022/11/22 04:12:46;;;;;;;1999.90;999.90;;;;;;;-2.03;100.00;99059.63;4947361;29;20046;-75
2022/11/22 04:15:11;;;;;;;1999.90;999.90;;;;;;;-1.95;100.00;99058.94;4945270;29;20127;-75
2022/11/22 04:17:46;;;;;;;1999.90;999.90;;;;;;;-1.89;100.00;99054.75;4946764;28;20098;-75
2022/11/22 04:23:14;;;;;;;1999.90;999.90;;;;;;;-1.74;100.00;99067.09;4942738;29;20051;-75
2022/11/22 04:25:42;;;;;;;1999.90;999.90;;;;;;;-1.68;100.00;99064.63;4947964;28;20161;-75
2022/11/22 04:28:10;;;;;;;1999.90;999.90;;;;;;;-1.62;100.00;99069.06;4947137;28;20053;-75
2022/11/22 04:33:20;;;;;;;1999.90;999.90;;;;;;;-1.49;100.00;99071.06;4942936;29;20498;-75
2022/11/22 04:35:46;;;;;;;1999.90;999.90;;;;;;;-1.45;100.00;99075.41;4947780;28;20123;-75
2022/11/22 04:38:12;;;;;;;1999.90;999.90;;;;;;;-1.41;100.00;99072.06;4946263;28;20035;-75
2022/11/22 04:40:38;;;;;;;1999.90;999.90;;;;;;;-1.35;100.00;99066.97;4944591;28;20613;-75
2022/11/22 04:45:49;;;;;;;1999.90;999.90;;;;;;;-1.36;100.00;99062.66;4945056;28;20043;-75
2022/11/22 04:48:15;;;;;;;1999.90;999.90;;;;;;;-1.33;100.00;99062.72;4943414;28;20035;-75
2022/11/22 04:53:25;;;;;;;1999.90;999.90;;;;;;;-1.35;100.00;99048.88;4944200;29;20039;-75
2022/11/22 04:55:51;;;;;;;1999.90;999.90;;;;;;;-1.35;100.00;99053.19;4948240;28;20042;-75
2022/11/22 04:58:17;;;;;;;1999.90;999.90;;;;;;;-1.33;100.00;99042.00;4943148;28;20038;-75
2022/11/22 05:00:43;;;;;;;1999.90;999.90;;;;;;;-1.32;100.00;99048.06;4949848;28;20073;-76
2022/11/22 05:03:08;;;;;;;1999.90;999.90;;;;;;;-1.31;100.00;99042.06;4950746;28;20522;-75
2022/11/22 05:05:38;;;;;;;1999.90;999.90;;;;;;;-1.25;100.00;99046.47;4944730;28;20031;-75
2022/11/22 05:08:05;;;;;;;1999.90;999.90;;;;;;;-1.25;100.00;99042.16;4947774;28;20036;-75
2022/11/22 05:10:55;;;;;;;1999.90;999.90;;;;;;;-1.25;100.00;99039.56;4945362;29;20043;-75
2022/11/22 05:13:16;;;;;;;1999.90;999.90;;;;;;;-1.20;100.00;99039.63;4945578;29;20038;-75
2022/11/22 05:15:42;;;;;;;1999.90;999.90;;;;;;;-1.19;100.00;99028.44;4950793;28;20035;-75
2022/11/22 05:18:07;;;;;;;1999.90;999.90;;;;;;;-1.14;100.00;99024.19;4945762;28;20055;-75
2022/11/22 11:07:22;;;;;;;117.30;107.25;;;;;;;3.01;100.00;99177.97;5085562;27;20352;-74
2022/11/22 11:09:54;;;;;;;1999.90;999.90;;;;;;;3.19;100.00;99171.03;5074661;28;20039;-74
2022/11/22 11:12:39;;;;;;;1999.90;999.90;;;;;;;3.49;100.00;99165.00;5047616;28;20044;-75
2022/11/22 11:15:21;;;;;;;1999.90;999.90;;;;;;;3.76;100.00;99153.69;5040010;28;20037;-74
2022/11/22 11:17:53;;;;;;;1999.90;999.90;;;;;;;3.98;100.00;99153.66;5041114;28;20048;-74
2022/11/22 11:20:26;;;;;;;1999.90;999.90;;;;;;;4.11;100.00;99150.16;5036719;28;20033;-75
2022/11/22 11:22:52;;;;;;;1999.90;999.90;;;;;;;4.29;100.00;99149.25;5038009;28;20041;-76
2022/11/22 11:25:41;;;;;;;1999.90;999.90;;;;;;;4.49;100.00;99149.19;5038754;28;20037;-74
2022/11/22 11:28:22;;;;;;;1999.90;999.90;;;;;;;4.58;100.00;99155.25;5042916;28;20042;-74
2022/11/22 11:30:58;;;;;;;1999.90;999.90;;;;;;;4.70;100.00;99150.84;5044542;28;20029;-74
2022/11/22 11:33:32;;;;;;;1999.90;999.90;;;;;;;4.75;100.00;99149.06;5047541;28;20035;-74
2022/11/22 11:36:10;;;;;;;1999.90;999.90;;;;;;;4.75;100.00;99156.91;5058523;28;20062;-74
2022/11/22 11:38:49;;;;;;;1999.90;999.90;;;;;;;4.80;100.00;99152.53;5047034;28;20052;-74
2022/11/22 11:41:28;;;;;;;1999.90;999.90;;;;;;;4.90;100.00;99149.00;5044243;28;20380;-74
2022/11/22 11:43:56;;;;;;;1999.90;999.90;;;;;;;4.98;100.00;99148.97;5040849;28;20040;-74
2022/11/22 11:46:24;;;;;;;1999.90;999.90;;;;;;;5.04;100.00;99146.31;5042712;28;20029;-74
2022/11/22 11:48:54;;;;;;;1999.90;999.90;;;;;;;5.00;99.53;99139.34;5041704;28;20091;-74
2022/11/22 11:51:35;;;;;;;1999.90;999.90;;;;;;;4.96;98.80;99138.50;5043129;28;20033;-74
2022/11/22 11:54:10;;;;;;;1999.90;999.90;;;;;;;4.94;99.32;99128.94;5038425;28;20524;-74
2022/11/22 11:56:39;;;;;;;1999.90;999.90;;;;;;;5.02;99.76;99138.44;5037485;28;20030;-75
2022/11/22 11:59:18;;;;;;;1999.90;999.90;;;;;;;5.09;98.38;99139.31;5037462;28;20112;-75
2022/11/22 12:01:54;;;;;;;1999.90;999.90;;;;;;;5.01;97.36;99135.88;5036059;28;20048;-74
2022/11/22 12:04:26;;;;;;;1999.90;999.90;;;;;;;4.96;98.27;99138.50;5038161;28;20080;-74
2022/11/22 12:07:04;;;;;;;1999.90;999.90;;;;;;;4.93;98.61;99132.44;5039335;28;20060;-74
2022/11/22 12:09:33;;;;;;;1999.90;999.90;;;;;;;4.96;99.33;99128.03;5040565;28;20044;-74
2022/11/22 12:12:12;;;;;;;1999.90;999.90;;;;;;;5.00;98.90;99126.25;5036307;28;20034;-74
2022/11/22 12:14:43;;;;;;;1999.90;999.90;;;;;;;5.08;98.55;99114.00;5035853;28;20037;-74
2022/11/22 12:17:17;;;;;;;1999.90;999.90;;;;;;;5.12;98.40;99109.66;5037400;28;20394;-74
2022/11/22 12:19:54;;;;;;;1999.90;999.90;;;;;;;5.14;98.01;99116.59;5025247;28;20033;-74
2022/11/22 12:22:32;;;;;;;1999.90;999.90;;;;;;;5.13;97.99;99103.53;5032392;28;20470;-74
2022/11/22 12:25:20;;;;;;;1999.90;999.90;;;;;;;5.09;97.61;99100.06;5027329;28;20025;-74
2022/11/22 12:27:45;;;;;;;1999.90;999.90;;;;;;;5.08;97.77;99113.16;5028294;28;20030;-74
2022/11/22 12:30:11;;;;;;;1999.90;999.90;;;;;;;4.98;97.90;99113.22;5031290;28;20048;-74
2022/11/22 12:33:01;;;;;;;1999.90;999.90;;;;;;;4.97;98.83;99103.63;5027297;28;20060;-75
2022/11/22 12:35:33;;;;;;;1999.90;999.90;;;;;;;4.97;98.51;99114.06;5017965;28;20041;-74
2022/11/22 12:38:12;;;;;;;1999.90;999.90;;;;;;;4.94;98.09;99108.88;5021735;28;20064;-74
2022/11/22 12:40:41;;;;;;;1999.90;999.90;;;;;;;4.95;98.90;99115.84;5021352;28;20038;-74
2022/11/22 12:43:15;;;;;;;1999.90;999.90;;;;;;;4.90;98.40;99121.97;5025615;28;20377;-76
2022/11/22 12:45:47;;;;;;;1999.90;999.90;;;;;;;4.87;99.25;99125.47;5028845;28;20095;-75
2022/11/22 12:48:28;;;;;;;1999.90;999.90;;;;;;;4.92;99.49;99122.84;5027692;28;20050;-75
2022/11/22 12:51:35;;;;;;;1999.90;999.90;;;;;;;4.95;99.11;99122.81;5026302;28;20134;-73
2022/11/22 12:54:05;;;;;;;1999.90;999.90;;;;;;;4.98;99.07;99120.19;5027810;28;20511;-73
2022/11/22 12:56:47;;;;;;;1999.90;999.90;;;;;;;4.81;98.02;99128.97;5023426;28;20114;-73
2022/11/22 12:59:42;;;;;;;1999.90;999.90;;;;;;;4.75;99.73;99123.81;5022696;28;20125;-73
2022/11/22 13:02:27;;;;;;;1999.90;999.90;;;;;;;4.68;100.00;99131.69;5023400;28;20077;-73
2022/11/22 13:05:19;;;;;;;1999.90;999.90;;;;;;;4.69;100.00;99131.69;5022662;28;20033;-73
2022/11/22 13:08:08;;;;;;;1999.90;999.90;;;;;;;4.71;100.00;99131.66;5023563;28;20088;-73
2022/11/22 13:10:43;;;;;;;1999.90;999.90;;;;;;;4.73;100.00;99133.38;5025755;28;20099;-74
2022/11/22 13:13:31;;;;;;;1999.90;999.90;;;;;;;4.86;100.00;99126.34;5024666;28;20112;-73
2022/11/22 13:15:59;;;;;;;1999.90;999.90;;;;;;;4.98;100.00;99120.19;5024321;28;20033;-73
2022/11/22 13:18:26;;;;;;;1999.90;999.90;;;;;;;5.08;99.48;99121.00;5024416;28;20037;-72
2022/11/22 13:21:07;;;;;;;1999.90;999.90;;;;;;;5.02;99.05;99120.16;5022877;28;20069;-73
2022/11/22 13:24:03;;;;;;;1999.90;999.90;;;;;;;4.98;98.90;99117.59;5023846;28;20502;-72
2022/11/22 13:26:36;;;;;;;1999.90;999.90;;;;;;;4.91;99.32;99124.59;5029718;28;20032;-73
2022/11/22 13:29:17;;;;;;;1999.90;999.90;;;;;;;4.97;99.63;99121.06;5023770;28;20052;-73
2022/11/22 13:32:13;;;;;;;1999.90;999.90;;;;;;;4.95;98.94;99126.31;5022470;28;20095;-72
2022/11/22 13:34:57;;;;;;;1999.90;999.90;;;;;;;4.97;99.37;99121.06;5023401;28;20037;-73
2022/11/22 13:37:22;;;;;;;1999.90;999.90;;;;;;;5.11;99.11;99127.09;5025012;28;20116;-73
2022/11/22 13:39:49;;;;;;;1999.90;999.90;;;;;;;5.21;98.48;99127.88;5025036;28;20101;-73
2022/11/22 13:42:26;;;;;;;1999.90;999.90;;;;;;;5.28;97.24;99125.19;5021829;28;20454;-73
2022/11/22 13:44:54;;;;;;;1999.90;999.90;;;;;;;5.29;97.18;99131.28;5026940;28;20037;-73
2022/11/22 13:47:22;;;;;;;1999.90;999.90;;;;;;;5.27;97.61;99139.19;5026371;28;20091;-73
2022/11/22 13:49:52;;;;;;;1999.90;999.90;;;;;;;5.30;97.41;99140.03;5020710;28;20180;-73
2022/11/22 13:52:18;;;;;;;1999.90;999.90;;;;;;;5.34;97.03;99132.13;5021161;28;20100;-73
2022/11/22 13:54:46;;;;;;;1999.90;999.90;;;;;;;5.40;97.12;99132.09;5022540;28;20112;-73
2022/11/22 13:57:34;;;;;;;1999.90;999.90;;;;;;;5.43;95.86;99123.38;5024976;28;20182;-73
2022/11/22 14:00:08;;;;;;;1999.90;999.90;;;;;;;5.44;96.24;99123.34;5022600;28;20033;-73
2022/11/22 14:02:34;;;;;;;1999.90;999.90;;;;;;;5.47;95.56;99122.44;5023924;28;20121;-76
2022/11/22 14:05:00;;;;;;;1999.90;999.90;;;;;;;5.43;95.00;99119.00;5026408;28;20120;-73
2022/11/22 14:07:33;;;;;;;1999.90;999.90;;;;;;;5.27;95.59;99113.00;5026062;28;20053;-73
2022/11/22 14:10:00;;;;;;;1999.90;999.90;;;;;;;5.32;96.33;99112.09;5018693;28;20113;-74
2022/11/22 14:12:41;;;;;;;1999.90;999.90;;;;;;;5.37;95.49;99112.94;5023459;28;20037;-73
2022/11/22 14:15:35;;;;;;;1999.90;999.90;;;;;;;5.44;95.01;99106.78;5022753;28;20037;-73
2022/11/22 14:18:24;;;;;;;1999.90;999.90;;;;;;;5.46;95.31;99107.63;5023817;28;20396;-73
2022/11/22 14:21:12;;;;;;;1999.90;999.90;;;;;;;5.47;95.44;99104.13;5023331;28;20052;-73
2022/11/22 14:24:02;;;;;;;1999.90;999.90;;;;;;;5.47;95.67;99109.38;5023087;28;20128;-73
2022/11/22 14:26:40;;;;;;;1999.90;999.90;;;;;;;5.55;96.02;99111.91;5026263;28;20172;-73
2022/11/22 14:29:42;;;;;;;1999.90;999.90;;;;;;;5.63;95.62;99110.09;5021545;28;20033;-73
2022/11/22 14:32:17;;;;;;;1999.90;999.90;;;;;;;5.62;94.72;99104.00;5025345;28;20109;-73
2022/11/22 14:35:04;;;;;;;1999.90;999.90;;;;;;;5.55;95.03;99110.16;5022922;28;20060;-73
2022/11/22 14:37:32;;;;;;;1999.90;999.90;;;;;;;5.48;95.54;99105.88;5024355;28;20045;-73
2022/11/22 14:40:07;;;;;;;1999.90;999.90;;;;;;;5.45;95.80;99116.38;5035277;28;20048;-73
2022/11/22 14:42:46;;;;;;;1999.90;999.90;;;;;;;5.40;95.30;99113.78;5022890;28;20040;-72
2022/11/22 14:45:11;;;;;;;1999.90;999.90;;;;;;;5.34;95.04;99118.19;5024872;28;20504;-73
2022/11/22 14:47:40;;;;;;;1999.90;999.90;;;;;;;5.22;94.93;99119.16;5029119;28;20080;-73
2022/11/22 14:50:37;;;;;;;1999.90;999.90;;;;;;;5.10;95.78;99125.34;5022305;28;20192;-73
2022/11/22 14:53:19;;;;;;;1999.90;999.90;;;;;;;5.02;95.64;99119.28;5022982;28;20236;-73
2022/11/22 14:55:46;;;;;;;1999.90;999.90;;;;;;;4.98;96.27;99131.53;5019684;28;20436;-73
2022/11/22 14:58:19;;;;;;;1999.90;999.90;;;;;;;4.95;96.00;99126.31;5023331;28;20049;-73
2022/11/22 15:00:59;;;;;;;1999.90;999.90;;;;;;;4.77;96.03;99132.50;5022929;28;20029;-73
2022/11/22 15:03:59;;;;;;;1999.90;999.90;;;;;;;4.71;96.81;99127.28;5024479;28;20128;-73
2022/11/22 15:06:42;;;;;;;1999.90;999.90;;;;;;;4.64;96.46;99129.94;5022249;28;20028;-73
2022/11/22 15:09:17;;;;;;;1999.90;999.90;;;;;;;4.50;97.91;99133.47;5021713;28;20046;-73
2022/11/22 15:12:04;;;;;;;1999.90;999.90;;;;;;;4.56;98.00;99143.06;5024789;28;20653;-73
2022/11/22 15:14:41;;;;;;;1999.90;999.90;;;;;;;4.61;97.97;99141.28;5023027;28;20046;-72
2022/11/22 15:17:13;;;;;;;1999.90;999.90;;;;;;;4.64;97.71;99145.63;5022021;28;20030;-73
2022/11/22 15:19:39;;;;;;;1999.90;999.90;;;;;;;4.63;97.70;99147.38;5019589;28;20033;-73
2022/11/22 15:22:14;;;;;;;1999.90;999.90;;;;;;;4.64;97.64;99146.50;5019448;28;20042;-73
2022/11/22 15:24:41;;;;;;;1999.90;999.90;;;;;;;4.68;97.58;99150.84;5020574;28;20041;-73
2022/11/22 15:27:31;;;;;;;1999.90;999.90;;;;;;;4.70;97.32;99158.69;5021886;28;20033;-72
2022/11/22 15:30:09;;;;;;;1999.90;999.90;;;;;;;4.68;97.05;99157.81;5022428;28;20049;-73
2022/11/22 15:32:38;;;;;;;1999.90;999.90;;;;;;;4.69;97.42;99165.66;5020675;28;20030;-73
2022/11/22 15:35:04;;;;;;;1999.90;999.90;;;;;;;4.71;97.56;99157.78;5023070;28;20116;-73
2022/11/22 15:37:45;;;;;;;1999.90;999.90;;;;;;;4.74;96.99;99168.22;5026602;28;20120;-73
2022/11/22 15:40:16;;;;;;;1999.90;999.90;;;;;;;4.57;96.74;99163.94;5021322;28;20103;-74
2022/11/22 15:42:56;;;;;;;1999.90;999.90;;;;;;;4.34;97.94;99164.03;5017983;28;20103;-73
2022/11/22 15:45:24;;;;;;;1999.90;999.90;;;;;;;4.31;99.52;99166.66;5020189;28;20033;-72
2022/11/22 15:47:59;;;;;;;1999.90;999.90;;;;;;;4.43;98.66;99165.75;5026278;28;20081;-72
2022/11/22 15:50:24;;;;;;;1999.90;999.90;;;;;;;4.52;98.35;99157.88;5025752;28;20044;-72
2022/11/22 15:52:52;;;;;;;1999.90;999.90;;;;;;;4.57;97.94;99171.78;5022615;28;20041;-73
2022/11/22 15:55:21;;;;;;;1999.90;999.90;;;;;;;4.54;97.37;99163.09;5025311;28;20041;-73
2022/11/22 15:57:51;;;;;;;1999.90;999.90;;;;;;;4.60;97.74;99165.69;5021452;28;20038;-73
2022/11/22 16:00:25;;;;;;;1999.90;999.90;;;;;;;4.61;97.38;99167.41;5025586;28;20497;-73
2022/11/22 16:02:57;;;;;;;1999.90;999.90;;;;;;;4.66;97.36;99177.84;5025539;28;20033;-73
2022/11/22 16:05:29;;;;;;;1999.90;999.90;;;;;;;4.68;96.93;99171.75;5022569;28;20036;-72
2022/11/22 16:07:56;;;;;;;1999.90;999.90;;;;;;;4.68;97.17;99169.13;5027954;28;20132;-72
2022/11/22 16:10:38;;;;;;;1999.90;999.90;;;;;;;4.67;96.58;99172.63;5023062;28;20698;-74
2022/11/22 16:13:24;;;;;;;1999.90;999.90;;;;;;;4.62;97.08;99174.38;5025621;28;20065;-73
2022/11/22 16:16:12;;;;;;;1999.90;999.90;;;;;;;4.60;96.95;99173.53;5040818;28;20026;-73
2022/11/22 16:18:44;;;;;;;1999.90;999.90;;;;;;;4.63;96.93;99170.03;5026695;28;20107;-72
2022/11/22 16:21:12;;;;;;;1999.90;999.90;;;;;;;4.63;96.75;99168.28;5027403;28;20037;-71
2022/11/22 16:23:39;;;;;;;1999.90;999.90;;;;;;;4.62;97.26;99171.78;5028871;28;20037;-71
2022/11/22 16:26:17;;;;;;;1999.90;999.90;;;;;;;4.59;96.76;99166.56;5018429;28;20030;-72
2022/11/22 16:28:44;;;;;;;1999.90;999.90;;;;;;;4.59;97.38;99167.44;5029898;28;20050;-71
2022/11/22 16:31:18;;;;;;;1999.90;999.90;;;;;;;4.58;97.55;99167.44;5027641;28;20483;-72
2022/11/22 16:33:44;;;;;;;1999.90;999.90;;;;;;;4.58;97.51;99175.25;5024901;28;20040;-72
2022/11/22 16:36:13;;;;;;;1999.90;999.90;;;;;;;4.58;98.29;99183.09;5022626;28;20171;-71
2022/11/22 16:38:39;;;;;;;1999.90;999.90;;;;;;;4.55;97.68;99188.34;5026244;28;20072;-71
2022/11/22 16:41:11;;;;;;;1999.90;999.90;;;;;;;4.60;97.87;99192.69;5032418;28;20033;-71
2022/11/22 16:43:36;;;;;;;1999.90;999.90;;;;;;;4.61;97.96;99193.53;5032896;28;20119;-71
2022/11/22 16:46:02;;;;;;;1999.90;999.90;;;;;;;4.63;97.70;99196.16;5032634;28;20064;-71
2022/11/22 16:48:29;;;;;;;1999.90;999.90;;;;;;;4.66;97.33;99199.63;5033001;28;20422;-70
2022/11/22 16:51:06;;;;;;;1999.90;999.90;;;;;;;4.58;96.93;99198.78;5032957;28;20538;-71
2022/11/22 16:53:40;;;;;;;1999.90;999.90;;;;;;;4.55;98.08;99204.03;5031089;28;20087;-71
2022/11/22 16:56:06;;;;;;;1999.90;999.90;;;;;;;4.58;97.85;99209.22;5030713;28;20048;-71
2022/11/22 16:58:32;;;;;;;1999.90;999.90;;;;;;;4.58;97.74;99204.91;5032315;28;20029;-71
2022/11/22 17:00:57;;;;;;;1999.90;999.90;;;;;;;4.55;97.66;99204.03;5031046;28;20030;-71
2022/11/22 17:03:26;;;;;;;1999.90;999.90;;;;;;;4.55;98.22;99215.34;5032442;28;20025;-72
2022/11/22 17:05:51;;;;;;;1999.90;999.90;;;;;;;4.52;98.11;99211.88;5028188;28;20128;-71
2022/11/22 17:08:18;;;;;;;1999.90;999.90;;;;;;;4.51;97.91;99208.41;5031981;28;20115;-72
2022/11/22 17:10:46;;;;;;;1999.90;999.90;;;;;;;4.37;98.48;99210.16;5021463;28;20037;-70
2022/11/22 17:13:26;;;;;;;1999.90;999.90;;;;;;;4.38;98.70;99218.00;5023617;28;20499;-71
2022/11/22 17:15:53;;;;;;;1999.90;999.90;;;;;;;4.41;99.26;99221.50;5024509;28;20041;-71